Falmouth, Maine
Current Conditions -  °F | °C
As of 8:01 AM on Wednesday 22 Oct 2014 (Local Time) from KPWM Reporting Station
Light Rain Light Rain  
Wind Chill: 44°   Ceiling: 1300
Heat Index: 49°   Visibility: 2.5mi
Dew Point: 46°   Wind: 14mph
Humidity: 90%   Direction: 30°NNE
Pressure: 30.11"   Gusts: 22mph
Location:  43.73°N, 70.24°W
Report Text: KPWM 221201Z 03012G19KT 2 1/2SM -RA BR OVC013 09/08 A3011 RMK AO2 P0000 T00940078
Loading
Personal Weather Stations






























Interactive Weather Map
Tropical Storm Tracking
New forecast layout! Learn more

10-Day Weather Forecast

Advertisements
Track Severe Weather on mobile